sensor_id;sensor_type;location;lat;lon;timestamp;pressure;altitude;pressure_sealevel;temperature;humidity
71621;BME280;59471;42.254;23.102;2023-12-14T00:01:33;94963.03;;;6.81;94.45
71621;BME280;59471;42.254;23.102;2023-12-14T00:03:59;94976.38;;;6.78;94.01
71621;BME280;59471;42.254;23.102;2023-12-14T00:06:25;94977.31;;;6.62;94.42
71621;BME280;59471;42.254;23.102;2023-12-14T00:08:50;94965.56;;;6.66;94.12
71621;BME280;59471;42.254;23.102;2023-12-14T00:11:16;94964.28;;;6.16;94.88
71621;BME280;59471;42.254;23.102;2023-12-14T00:13:42;94960.66;;;6.25;93.68
71621;BME280;59471;42.254;23.102;2023-12-14T00:16:08;94959.06;;;6.16;96.28
71621;BME280;59471;42.254;23.102;2023-12-14T00:18:34;94954.31;;;5.97;95.35
71621;BME280;59471;42.254;23.102;2023-12-14T00:21:00;94954.91;;;6.30;96.41
71621;BME280;59471;42.254;23.102;2023-12-14T00:23:25;94962.91;;;6.29;96.79
71621;BME280;59471;42.254;23.102;2023-12-14T00:25:51;94960.31;;;6.29;97.00
71621;BME280;59471;42.254;23.102;2023-12-14T00:28:17;94968.91;;;6.52;95.71
71621;BME280;59471;42.254;23.102;2023-12-14T00:30:42;94964.28;;;6.39;95.72
71621;BME280;59471;42.254;23.102;2023-12-14T00:33:08;94972.63;;;6.35;95.46
71621;BME280;59471;42.254;23.102;2023-12-14T00:35:34;94966.16;;;6.31;95.30
71621;BME280;59471;42.254;23.102;2023-12-14T00:37:59;94963.44;;;5.85;95.79
71621;BME280;59471;42.254;23.102;2023-12-14T00:40:25;94962.44;;;5.86;97.21
71621;BME280;59471;42.254;23.102;2023-12-14T00:42:51;94950.75;;;5.90;96.90
71621;BME280;59471;42.254;23.102;2023-12-14T00:45:16;94965.03;;;5.94;95.79
71621;BME280;59471;42.254;23.102;2023-12-14T00:47:42;94955.47;;;5.94;96.07
71621;BME280;59471;42.254;23.102;2023-12-14T00:50:08;94961.50;;;5.78;96.56
71621;BME280;59471;42.254;23.102;2023-12-14T00:52:34;94959.91;;;5.69;98.18
71621;BME280;59471;42.254;23.102;2023-12-14T00:54:59;94963.38;;;5.62;98.27
71621;BME280;59471;42.254;23.102;2023-12-14T00:57:25;94963.13;;;5.79;98.07
71621;BME280;59471;42.254;23.102;2023-12-14T00:59:51;94961.72;;;6.08;96.69
71621;BME280;59471;42.254;23.102;2023-12-14T01:02:16;94960.31;;;5.97;94.92
71621;BME280;59471;42.254;23.102;2023-12-14T01:04:42;94963.56;;;5.99;96.33
71621;BME280;59471;42.254;23.102;2023-12-14T01:07:08;94968.56;;;6.01;96.22
71621;BME280;59471;42.254;23.102;2023-12-14T01:09:33;94961.00;;;6.22;95.83
71621;BME280;59471;42.254;23.102;2023-12-14T01:11:59;94962.09;;;5.89;95.57
71621;BME280;59471;42.254;23.102;2023-12-14T01:14:25;94951.78;;;5.80;97.15
71621;BME280;59471;42.254;23.102;2023-12-14T01:16:50;94965.34;;;5.91;95.66
71621;BME280;59471;42.254;23.102;2023-12-14T01:19:16;94970.47;;;6.15;95.43
71621;BME280;59471;42.254;23.102;2023-12-14T01:21:42;94961.09;;;6.06;96.65
71621;BME280;59471;42.254;23.102;2023-12-14T01:24:08;94946.19;;;6.23;97.11
71621;BME280;59471;42.254;23.102;2023-12-14T01:26:33;94946.41;;;6.36;96.89
71621;BME280;59471;42.254;23.102;2023-12-14T01:28:59;94963.72;;;6.52;96.07
71621;BME280;59471;42.254;23.102;2023-12-14T01:31:25;94952.72;;;6.42;94.55
71621;BME280;59471;42.254;23.102;2023-12-14T01:33:51;94954.06;;;6.38;95.75
71621;BME280;59471;42.254;23.102;2023-12-14T01:36:25;94939.44;;;6.60;95.50
71621;BME280;59471;42.254;23.102;2023-12-14T01:38:52;94952.25;;;6.61;94.86
71621;BME280;59471;42.254;23.102;2023-12-14T01:41:18;94952.47;;;6.74;94.35
71621;BME280;59471;42.254;23.102;2023-12-14T01:43:44;94954.91;;;6.76;94.50
71621;BME280;59471;42.254;23.102;2023-12-14T01:46:10;94938.50;;;6.76;94.42
71621;BME280;59471;42.254;23.102;2023-12-14T01:48:36;94941.50;;;6.64;94.90
71621;BME280;59471;42.254;23.102;2023-12-14T01:51:02;94947.66;;;6.71;94.66
71621;BME280;59471;42.254;23.102;2023-12-14T01:53:28;94936.44;;;6.48;94.33
71621;BME280;59471;42.254;23.102;2023-12-14T01:55:54;94929.97;;;6.44;94.14
71621;BME280;59471;42.254;23.102;2023-12-14T01:58:20;94919.31;;;6.08;94.26
71621;BME280;59471;42.254;23.102;2023-12-14T02:00:53;94923.81;;;6.37;95.37
71621;BME280;59471;42.254;23.102;2023-12-14T02:03:25;94907.53;;;6.43;94.59
71621;BME280;59471;42.254;23.102;2023-12-14T02:05:51;94921.28;;;6.06;94.17
71621;BME280;59471;42.254;23.102;2023-12-14T02:08:17;94918.84;;;5.33;96.26
71621;BME280;59471;42.254;23.102;2023-12-14T02:10:42;94921.63;;;5.24;98.81
71621;BME280;59471;42.254;23.102;2023-12-14T02:13:08;94919.44;;;5.44;97.84
71621;BME280;59471;42.254;23.102;2023-12-14T02:15:33;94922.91;;;5.28;96.87
71621;BME280;59471;42.254;23.102;2023-12-14T02:17:59;94924.19;;;5.32;99.09
71621;BME280;59471;42.254;23.102;2023-12-14T02:20:25;94913.25;;;5.45;100.00
71621;BME280;59471;42.254;23.102;2023-12-14T02:22:53;94909.97;;;5.59;99.06
71621;BME280;59471;42.254;23.102;2023-12-14T02:25:21;94913.00;;;5.71;99.20
71621;BME280;59471;42.254;23.102;2023-12-14T02:27:48;94924.56;;;5.60;99.22
71621;BME280;59471;42.254;23.102;2023-12-14T02:30:15;94904.09;;;5.65;97.94
71621;BME280;59471;42.254;23.102;2023-12-14T02:32:41;94901.25;;;5.52;98.88
71621;BME280;59471;42.254;23.102;2023-12-14T02:35:07;94885.34;;;5.47;98.74
71621;BME280;59471;42.254;23.102;2023-12-14T02:37:34;94885.72;;;5.35;100.00
71621;BME280;59471;42.254;23.102;2023-12-14T02:40:06;94901.53;;;5.57;99.41
71621;BME280;59471;42.254;23.102;2023-12-14T02:42:32;94916.09;;;5.66;99.83
71621;BME280;59471;42.254;23.102;2023-12-14T02:44:58;94902.88;;;5.45;99.29
71621;BME280;59471;42.254;23.102;2023-12-14T02:47:24;94904.56;;;5.69;99.64
71621;BME280;59471;42.254;23.102;2023-12-14T02:49:49;94906.56;;;5.90;98.83
71621;BME280;59471;42.254;23.102;2023-12-14T02:52:15;94907.97;;;5.69;97.28
71621;BME280;59471;42.254;23.102;2023-12-14T02:54:41;94915.28;;;5.26;99.21
71621;BME280;59471;42.254;23.102;2023-12-14T02:57:06;94915.59;;;5.31;99.19
71621;BME280;59471;42.254;23.102;2023-12-14T02:59:32;94921.34;;;5.58;99.36
71621;BME280;59471;42.254;23.102;2023-12-14T03:01:58;94932.16;;;5.70;98.39
71621;BME280;59471;42.254;23.102;2023-12-14T03:04:24;94913.47;;;5.74;97.68
71621;BME280;59471;42.254;23.102;2023-12-14T03:06:50;94920.19;;;5.61;97.56
71621;BME280;59471;42.254;23.102;2023-12-14T03:09:16;94920.28;;;5.75;97.32
71621;BME280;59471;42.254;23.102;2023-12-14T03:11:41;94910.19;;;5.80;98.02
71621;BME280;59471;42.254;23.102;2023-12-14T03:14:07;94932.84;;;6.03;96.87
71621;BME280;59471;42.254;23.102;2023-12-14T03:16:32;94928.63;;;6.48;95.97
71621;BME280;59471;42.254;23.102;2023-12-14T03:19:00;94911.06;;;6.50;95.89
71621;BME280;59471;42.254;23.102;2023-12-14T03:21:26;94921.72;;;6.40;94.55
71621;BME280;59471;42.254;23.102;2023-12-14T03:23:52;94916.94;;;6.67;95.48
71621;BME280;59471;42.254;23.102;2023-12-14T03:26:18;94899.47;;;6.76;94.52
71621;BME280;59471;42.254;23.102;2023-12-14T03:28:43;94907.53;;;6.81;93.93
71621;BME280;59471;42.254;23.102;2023-12-14T03:31:11;94913.72;;;6.80;93.65
71621;BME280;59471;42.254;23.102;2023-12-14T03:33:38;94897.47;;;6.78;94.25
71621;BME280;59471;42.254;23.102;2023-12-14T03:36:05;94891.31;;;6.79;94.32
71621;BME280;59471;42.254;23.102;2023-12-14T03:38:34;94899.56;;;6.82;93.56
71621;BME280;59471;42.254;23.102;2023-12-14T03:40:59;94899.72;;;6.81;93.56
71621;BME280;59471;42.254;23.102;2023-12-14T03:43:26;94908.72;;;6.78;94.17
71621;BME280;59471;42.254;23.102;2023-12-14T03:45:52;94904.94;;;6.81;93.35
71621;BME280;59471;42.254;23.102;2023-12-14T03:48:17;94907.06;;;6.62;94.52
71621;BME280;59471;42.254;23.102;2023-12-14T03:50:43;94908.53;;;6.80;93.46
71621;BME280;59471;42.254;23.102;2023-12-14T03:53:08;94901.25;;;6.75;94.09
71621;BME280;59471;42.254;23.102;2023-12-14T03:55:34;94892.72;;;6.66;93.75
71621;BME280;59471;42.254;23.102;2023-12-14T03:58:00;94912.28;;;6.62;94.65
71621;BME280;59471;42.254;23.102;2023-12-14T04:00:26;94907.06;;;6.62;94.83
71621;BME280;59471;42.254;23.102;2023-12-14T04:02:52;94903.94;;;6.67;94.02
71621;BME280;59471;42.254;23.102;2023-12-14T04:05:17;94893.63;;;6.73;94.38
71621;BME280;59471;42.254;23.102;2023-12-14T04:07:43;94895.53;;;6.80;93.57
71621;BME280;59471;42.254;23.102;2023-12-14T04:10:10;94893.63;;;6.73;93.77
71621;BME280;59471;42.254;23.102;2023-12-14T04:12:37;94901.22;;;6.60;93.40
71621;BME280;59471;42.254;23.102;2023-12-14T04:15:07;94899.63;;;6.59;93.30
71621;BME280;59471;42.254;23.102;2023-12-14T04:17:34;94903.41;;;6.34;93.56
71621;BME280;59471;42.254;23.102;2023-12-14T04:20:01;94906.66;;;6.04;94.45
71621;BME280;59471;42.254;23.102;2023-12-14T04:22:28;94895.06;;;6.15;95.70
71621;BME280;59471;42.254;23.102;2023-12-14T04:24:54;94896.44;;;6.03;95.35
71621;BME280;59471;42.254;23.102;2023-12-14T04:27:20;94904.66;;;6.15;94.10
71621;BME280;59471;42.254;23.102;2023-12-14T04:29:45;94896.22;;;6.13;95.28
71621;BME280;59471;42.254;23.102;2023-12-14T04:32:11;94893.88;;;5.95;94.04
71621;BME280;59471;42.254;23.102;2023-12-14T04:34:37;94895.16;;;5.99;94.65
71621;BME280;59471;42.254;23.102;2023-12-14T04:37:03;94891.59;;;5.61;95.04
71621;BME280;59471;42.254;23.102;2023-12-14T04:39:29;94882.47;;;5.73;95.47
71621;BME280;59471;42.254;23.102;2023-12-14T04:41:54;94894.63;;;5.72;96.20
71621;BME280;59471;42.254;23.102;2023-12-14T04:44:20;94891.06;;;5.73;96.29
71621;BME280;59471;42.254;23.102;2023-12-14T04:46:49;94899.72;;;5.66;96.51
71621;BME280;59471;42.254;23.102;2023-12-14T04:49:15;94885.69;;;5.44;97.17
71621;BME280;59471;42.254;23.102;2023-12-14T04:51:41;94873.81;;;5.49;97.58
71621;BME280;59471;42.254;23.102;2023-12-14T04:54:07;94894.66;;;5.64;96.92
71621;BME280;59471;42.254;23.102;2023-12-14T04:56:33;94886.88;;;5.64;96.28
71621;BME280;59471;42.254;23.102;2023-12-14T04:58:59;94883.69;;;5.54;96.04
71621;BME280;59471;42.254;23.102;2023-12-14T05:01:24;94894.41;;;5.51;95.98
71621;BME280;59471;42.254;23.102;2023-12-14T05:03:53;94878.69;;;5.52;96.19
71621;BME280;59471;42.254;23.102;2023-12-14T05:06:19;94896.00;;;5.60;95.73
71621;BME280;59471;42.254;23.102;2023-12-14T05:08:44;94905.47;;;5.45;95.57
71621;BME280;59471;42.254;23.102;2023-12-14T05:11:12;94901.59;;;5.49;96.66
71621;BME280;59471;42.254;23.102;2023-12-14T05:13:39;94903.63;;;5.62;95.51
71621;BME280;59471;42.254;23.102;2023-12-14T05:16:05;94907.47;;;5.26;97.34
71621;BME280;59471;42.254;23.102;2023-12-14T05:18:31;94923.09;;;5.18;97.69
71621;BME280;59471;42.254;23.102;2023-12-14T05:20:56;94919.69;;;5.18;98.54
71621;BME280;59471;42.254;23.102;2023-12-14T05:23:23;94917.25;;;5.24;98.66
71621;BME280;59471;42.254;23.102;2023-12-14T05:25:49;94916.25;;;5.33;98.13
71621;BME280;59471;42.254;23.102;2023-12-14T05:28:15;94927.50;;;5.57;97.11
71621;BME280;59471;42.254;23.102;2023-12-14T05:30:40;94919.84;;;5.16;97.71
71621;BME280;59471;42.254;23.102;2023-12-14T05:33:06;94918.31;;;5.38;98.66
71621;BME280;59471;42.254;23.102;2023-12-14T05:35:32;94926.22;;;5.53;97.08
71621;BME280;59471;42.254;23.102;2023-12-14T05:37:58;94928.50;;;5.48;97.95
71621;BME280;59471;42.254;23.102;2023-12-14T05:40:23;94921.06;;;5.45;97.56
71621;BME280;59471;42.254;23.102;2023-12-14T05:42:49;94931.22;;;5.23;98.02
71621;BME280;59471;42.254;23.102;2023-12-14T05:45:15;94928.94;;;5.12;100.00
71621;BME280;59471;42.254;23.102;2023-12-14T05:47:41;94932.16;;;5.22;100.00
71621;BME280;59471;42.254;23.102;2023-12-14T05:50:07;94933.16;;;5.21;99.33
71621;BME280;59471;42.254;23.102;2023-12-14T05:52:35;94942.53;;;5.30;99.28
71621;BME280;59471;42.254;23.102;2023-12-14T05:55:02;94934.66;;;5.55;98.33
71621;BME280;59471;42.254;23.102;2023-12-14T05:57:28;94932.78;;;5.32;99.61
71621;BME280;59471;42.254;23.102;2023-12-14T05:59:53;94933.41;;;5.43;99.68
71621;BME280;59471;42.254;23.102;2023-12-14T06:02:19;94938.28;;;5.46;99.49
71621;BME280;59471;42.254;23.102;2023-12-14T06:04:44;94940.81;;;5.62;97.65
71621;BME280;59471;42.254;23.102;2023-12-14T06:07:10;94941.06;;;5.75;97.27
71621;BME280;59471;42.254;23.102;2023-12-14T06:09:36;94948.19;;;5.34;99.70
71621;BME280;59471;42.254;23.102;2023-12-14T06:12:02;94941.56;;;5.31;100.00
71621;BME280;59471;42.254;23.102;2023-12-14T06:14:29;94929.28;;;5.09;99.69
71621;BME280;59471;42.254;23.102;2023-12-14T06:16:55;94932.63;;;5.34;99.88
71621;BME280;59471;42.254;23.102;2023-12-14T06:19:21;94928.91;;;5.28;98.99
71621;BME280;59471;42.254;23.102;2023-12-14T06:21:47;94941.13;;;5.59;98.21
71621;BME280;59471;42.254;23.102;2023-12-14T06:24:13;94942.75;;;5.60;98.94
71621;BME280;59471;42.254;23.102;2023-12-14T06:26:43;94932.03;;;5.63;97.96
71621;BME280;59471;42.254;23.102;2023-12-14T06:29:10;94950.13;;;5.79;97.04
71621;BME280;59471;42.254;23.102;2023-12-14T06:31:37;94941.13;;;5.59;98.10
71621;BME280;59471;42.254;23.102;2023-12-14T06:34:03;94930.06;;;5.65;98.15
71621;BME280;59471;42.254;23.102;2023-12-14T06:36:33;94958.00;;;5.63;98.71
71621;BME280;59471;42.254;23.102;2023-12-14T06:39:00;94939.44;;;5.74;98.16
71621;BME280;59471;42.254;23.102;2023-12-14T06:41:27;94950.03;;;6.04;97.20
71621;BME280;59471;42.254;23.102;2023-12-14T06:43:54;94952.69;;;5.96;97.03
71621;BME280;59471;42.254;23.102;2023-12-14T06:46:20;94974.63;;;5.93;97.20
71621;BME280;59471;42.254;23.102;2023-12-14T06:48:47;94957.38;;;5.92;97.18
71621;BME280;59471;42.254;23.102;2023-12-14T06:51:13;94968.38;;;5.63;97.97
71621;BME280;59471;42.254;23.102;2023-12-14T06:53:42;94973.50;;;5.79;97.67
71621;BME280;59471;42.254;23.102;2023-12-14T06:56:09;94961.50;;;5.78;97.21
71621;BME280;59471;42.254;23.102;2023-12-14T06:58:43;94962.25;;;5.56;99.47
71621;BME280;59471;42.254;23.102;2023-12-14T07:01:14;94961.78;;;5.92;99.40
71621;BME280;59471;42.254;23.102;2023-12-14T07:03:41;94967.06;;;6.15;97.00
71621;BME280;59471;42.254;23.102;2023-12-14T07:06:14;94962.31;;;6.18;96.80
71621;BME280;59471;42.254;23.102;2023-12-14T07:08:41;94958.50;;;6.29;97.18
71621;BME280;59471;42.254;23.102;2023-12-14T07:11:11;94959.41;;;6.13;98.42
71621;BME280;59471;42.254;23.102;2023-12-14T07:13:37;94963.81;;;6.13;98.59
71621;BME280;59471;42.254;23.102;2023-12-14T07:16:08;94966.59;;;6.57;97.40
71621;BME280;59471;42.254;23.102;2023-12-14T07:18:35;94963.59;;;6.68;94.98
71621;BME280;59471;42.254;23.102;2023-12-14T07:21:02;94970.97;;;6.80;95.58
71621;BME280;59471;42.254;23.102;2023-12-14T07:23:28;94979.22;;;7.06;94.06
71621;BME280;59471;42.254;23.102;2023-12-14T07:25:54;94979.28;;;6.98;94.80
71621;BME280;59471;42.254;23.102;2023-12-14T07:28:20;94981.31;;;7.26;94.20
71621;BME280;59471;42.254;23.102;2023-12-14T07:30:46;94981.78;;;7.29;93.95
71621;BME280;59471;42.254;23.102;2023-12-14T07:33:12;94975.41;;;7.32;93.85
71621;BME280;59471;42.254;23.102;2023-12-14T07:35:39;94971.28;;;7.52;93.66
71621;BME280;59471;42.254;23.102;2023-12-14T07:38:04;94979.19;;;7.74;92.28
71621;BME280;59471;42.254;23.102;2023-12-14T07:40:30;94983.59;;;7.73;92.27
71621;BME280;59471;42.254;23.102;2023-12-14T07:42:55;94987.72;;;7.82;91.98
71621;BME280;59471;42.254;23.102;2023-12-14T07:45:21;94978.69;;;8.00;91.59
71621;BME280;59471;42.254;23.102;2023-12-14T07:47:46;94994.31;;;8.15;89.92
71621;BME280;59471;42.254;23.102;2023-12-14T07:50:12;94997.63;;;8.38;88.00
71621;BME280;59471;42.254;23.102;2023-12-14T07:52:39;94988.94;;;8.52;87.62
71621;BME280;59471;42.254;23.102;2023-12-14T07:55:06;94996.59;;;8.54;87.54
71621;BME280;59471;42.254;23.102;2023-12-14T07:57:32;94991.81;;;8.57;87.65
71621;BME280;59471;42.254;23.102;2023-12-14T07:59:57;94987.94;;;8.53;88.11
71621;BME280;59471;42.254;23.102;2023-12-14T08:02:23;94981.75;;;8.54;88.63
71621;BME280;59471;42.254;23.102;2023-12-14T08:04:49;94983.00;;;8.58;88.66
71621;BME280;59471;42.254;23.102;2023-12-14T08:07:15;94972.66;;;8.72;88.13
71621;BME280;59471;42.254;23.102;2023-12-14T08:09:40;94976.03;;;8.87;87.10
71621;BME280;59471;42.254;23.102;2023-12-14T08:12:06;94968.81;;;8.89;86.70
71621;BME280;59471;42.254;23.102;2023-12-14T08:14:35;94968.16;;;9.09;86.83
71621;BME280;59471;42.254;23.102;2023-12-14T08:17:02;94968.59;;;9.12;86.38
71621;BME280;59471;42.254;23.102;2023-12-14T08:19:28;94972.84;;;9.20;86.18
71621;BME280;59471;42.254;23.102;2023-12-14T08:21:55;94973.34;;;9.30;85.77
71621;BME280;59471;42.254;23.102;2023-12-14T08:24:20;94973.19;;;9.38;85.48
71621;BME280;59471;42.254;23.102;2023-12-14T08:26:46;94976.09;;;9.50;85.78
71621;BME280;59471;42.254;23.102;2023-12-14T08:29:11;94979.50;;;9.50;84.38
71621;BME280;59471;42.254;23.102;2023-12-14T08:31:37;94980.97;;;9.60;84.50
71621;BME280;59471;42.254;23.102;2023-12-14T08:34:03;94978.22;;;9.68;84.57
71621;BME280;59471;42.254;23.102;2023-12-14T08:36:29;94985.88;;;9.76;84.49
71621;BME280;59471;42.254;23.102;2023-12-14T08:38:55;94971.25;;;9.82;84.39
71621;BME280;59471;42.254;23.102;2023-12-14T08:41:20;94973.50;;;9.91;83.98
71621;BME280;59471;42.254;23.102;2023-12-14T08:43:46;94969.72;;;10.01;83.22
71621;BME280;59471;42.254;23.102;2023-12-14T08:46:12;94964.88;;;9.97;83.24
71621;BME280;59471;42.254;23.102;2023-12-14T08:48:38;94962.31;;;10.11;83.10
71621;BME280;59471;42.254;23.102;2023-12-14T08:51:04;94952.66;;;10.18;82.73
71621;BME280;59471;42.254;23.102;2023-12-14T08:53:30;94953.16;;;10.28;82.55
71621;BME280;59471;42.254;23.102;2023-12-14T08:55:55;94946.28;;;10.34;83.18
71621;BME280;59471;42.254;23.102;2023-12-14T08:58:21;94935.88;;;10.40;82.83
71621;BME280;59471;42.254;23.102;2023-12-14T09:00:47;94928.22;;;10.52;81.77
71621;BME280;59471;42.254;23.102;2023-12-14T09:03:18;94929.84;;;10.60;82.20
71621;BME280;59471;42.254;23.102;2023-12-14T09:05:44;94933.09;;;10.75;81.33
71621;BME280;59471;42.254;23.102;2023-12-14T09:08:10;94937.94;;;10.85;81.12
71621;BME280;59471;42.254;23.102;2023-12-14T09:10:38;94921.03;;;10.94;80.28
71621;BME280;59471;42.254;23.102;2023-12-14T09:13:04;94920.22;;;11.07;79.75
71621;BME280;59471;42.254;23.102;2023-12-14T09:15:31;94916.97;;;11.18;79.36
71621;BME280;59471;42.254;23.102;2023-12-14T09:17:57;94911.31;;;11.21;79.20
71621;BME280;59471;42.254;23.102;2023-12-14T09:20:23;94894.97;;;11.32;78.45
71621;BME280;59471;42.254;23.102;2023-12-14T09:22:49;94893.94;;;11.33;77.86
71621;BME280;59471;42.254;23.102;2023-12-14T09:25:15;94881.00;;;11.52;77.41
71621;BME280;59471;42.254;23.102;2023-12-14T09:27:41;94893.09;;;11.53;77.71
71621;BME280;59471;42.254;23.102;2023-12-14T09:30:07;94880.59;;;11.55;76.48
71621;BME280;59471;42.254;23.102;2023-12-14T09:32:33;94880.53;;;11.68;76.23
71621;BME280;59471;42.254;23.102;2023-12-14T09:34:59;94880.34;;;11.70;76.81
71621;BME280;59471;42.254;23.102;2023-12-14T09:37:25;94879.72;;;11.74;76.35
71621;BME280;59471;42.254;23.102;2023-12-14T09:39:51;94880.09;;;11.78;75.61
71621;BME280;59471;42.254;23.102;2023-12-14T09:42:19;94895.84;;;11.85;75.63
71621;BME280;59471;42.254;23.102;2023-12-14T09:44:48;94893.22;;;11.85;75.80
71621;BME280;59471;42.254;23.102;2023-12-14T09:47:14;94895.00;;;11.91;75.81
71621;BME280;59471;42.254;23.102;2023-12-14T09:49:41;94893.00;;;11.93;75.75
71621;BME280;59471;42.254;23.102;2023-12-14T09:52:09;94894.19;;;11.90;75.71
71621;BME280;59471;42.254;23.102;2023-12-14T09:54:34;94899.41;;;11.97;75.99
71621;BME280;59471;42.254;23.102;2023-12-14T09:57:00;94897.81;;;11.96;76.34
71621;BME280;59471;42.254;23.102;2023-12-14T09:59:26;94900.88;;;11.79;76.49
71621;BME280;59471;42.254;23.102;2023-12-14T10:01:52;94898.47;;;11.71;76.67
71621;BME280;59471;42.254;23.102;2023-12-14T10:04:19;94893.88;;;11.60;77.73
71621;BME280;59471;42.254;23.102;2023-12-14T10:06:48;94893.91;;;11.47;78.08
71621;BME280;59471;42.254;23.102;2023-12-14T10:09:14;94883.44;;;11.47;78.02
71621;BME280;59471;42.254;23.102;2023-12-14T10:11:44;94888.72;;;11.33;78.79
71621;BME280;59471;42.254;23.102;2023-12-14T10:14:20;94892.53;;;11.37;78.21
71621;BME280;59471;42.254;23.102;2023-12-14T10:16:48;94900.38;;;11.51;77.60
71621;BME280;59471;42.254;23.102;2023-12-14T10:19:16;94897.59;;;11.32;77.89
71621;BME280;59471;42.254;23.102;2023-12-14T10:21:43;94899.19;;;11.33;78.34
71621;BME280;59471;42.254;23.102;2023-12-14T10:24:09;94893.34;;;11.45;78.28
71621;BME280;59471;42.254;23.102;2023-12-14T10:26:35;94875.50;;;11.60;78.11
71621;BME280;59471;42.254;23.102;2023-12-14T10:29:01;94889.00;;;11.70;77.42
71621;BME280;59471;42.254;23.102;2023-12-14T10:31:30;94888.13;;;11.96;76.47
71621;BME280;59471;42.254;23.102;2023-12-14T10:33:56;94892.91;;;12.06;76.12
71621;BME280;59471;42.254;23.102;2023-12-14T10:36:25;94898.97;;;12.06;76.79
71621;BME280;59471;42.254;23.102;2023-12-14T10:38:53;94910.25;;;12.07;75.55
71621;BME280;59471;42.254;23.102;2023-12-14T10:41:23;94914.63;;;12.26;75.80
71621;BME280;59471;42.254;23.102;2023-12-14T10:43:50;94923.53;;;12.19;75.70
71621;BME280;59471;42.254;23.102;2023-12-14T10:46:19;94948.81;;;12.13;75.79
71621;BME280;59471;42.254;23.102;2023-12-14T10:48:47;94945.00;;;12.09;75.10
71621;BME280;59471;42.254;23.102;2023-12-14T10:51:15;94933.94;;;11.94;76.41
71621;BME280;59471;42.254;23.102;2023-12-14T10:53:41;94932.50;;;12.04;76.41
71621;BME280;59471;42.254;23.102;2023-12-14T10:56:13;94943.13;;;12.16;76.36
71621;BME280;59471;42.254;23.102;2023-12-14T10:58:51;94950.75;;;11.86;76.23
71621;BME280;59471;42.254;23.102;2023-12-14T11:01:22;94931.03;;;11.57;77.20
71621;BME280;59471;42.254;23.102;2023-12-14T11:03:51;94943.88;;;11.72;77.20
71621;BME280;59471;42.254;23.102;2023-12-14T11:06:36;94930.94;;;11.83;76.89
71621;BME280;59471;42.254;23.102;2023-12-14T11:09:07;94928.34;;;11.70;77.34
71621;BME280;59471;42.254;23.102;2023-12-14T11:11:43;94932.22;;;11.61;77.49
71621;BME280;59471;42.254;23.102;2023-12-14T11:14:25;94931.75;;;11.77;76.99
71621;BME280;59471;42.254;23.102;2023-12-14T11:16:55;94931.97;;;11.76;76.84
71621;BME280;59471;42.254;23.102;2023-12-14T11:22:08;94927.25;;;11.98;75.34
71621;BME280;59471;42.254;23.102;2023-12-14T11:24:37;94931.94;;;11.96;75.44
71621;BME280;59471;42.254;23.102;2023-12-14T11:27:07;94932.06;;;12.14;74.87
71621;BME280;59471;42.254;23.102;2023-12-14T11:29:37;94931.31;;;11.94;75.85
71621;BME280;59471;42.254;23.102;2023-12-14T11:32:05;94923.56;;;12.12;75.57
71621;BME280;59471;42.254;23.102;2023-12-14T11:34:32;94928.75;;;12.25;74.84
71621;BME280;59471;42.254;23.102;2023-12-14T11:36:57;94929.44;;;12.52;73.40
71621;BME280;59471;42.254;23.102;2023-12-14T11:39:23;94929.56;;;12.64;72.90
71621;BME280;59471;42.254;23.102;2023-12-14T11:42:04;94936.13;;;12.73;72.80
71621;BME280;59471;42.254;23.102;2023-12-14T11:44:32;94947.69;;;12.72;73.38
71621;BME280;59471;42.254;23.102;2023-12-14T11:46:57;94950.63;;;12.83;73.19
71621;BME280;59471;42.254;23.102;2023-12-14T11:49:25;94954.72;;;12.79;73.68
71621;BME280;59471;42.254;23.102;2023-12-14T11:51:57;94957.47;;;12.59;74.04
71621;BME280;59471;42.254;23.102;2023-12-14T11:54:23;94964.38;;;12.53;73.30
71621;BME280;59471;42.254;23.102;2023-12-14T11:56:49;94956.06;;;12.56;73.82
71621;BME280;59471;42.254;23.102;2023-12-14T11:59:17;94958.47;;;12.58;73.64
71621;BME280;59471;42.254;23.102;2023-12-14T12:01:56;94956.69;;;12.58;73.81
71621;BME280;59471;42.254;23.102;2023-12-14T12:04:23;94950.44;;;12.52;74.50
71621;BME280;59471;42.254;23.102;2023-12-14T12:06:49;94956.41;;;12.66;73.99
71621;BME280;59471;42.254;23.102;2023-12-14T12:09:39;94950.81;;;12.56;74.06
71621;BME280;59471;42.254;23.102;2023-12-14T12:12:10;94946.41;;;12.50;74.72
71621;BME280;59471;42.254;23.102;2023-12-14T12:14:38;94948.34;;;12.68;74.49
71621;BME280;59471;42.254;23.102;2023-12-14T12:17:05;94946.59;;;12.87;73.75
71621;BME280;59471;42.254;23.102;2023-12-14T12:19:36;94937.34;;;12.78;73.81
71621;BME280;59471;42.254;23.102;2023-12-14T12:22:03;94926.28;;;12.69;74.75
71621;BME280;59471;42.254;23.102;2023-12-14T12:24:29;94933.88;;;12.84;74.01
71621;BME280;59471;42.254;23.102;2023-12-14T12:26:55;94936.06;;;12.87;73.66
71621;BME280;59471;42.254;23.102;2023-12-14T12:29:21;94934.88;;;12.83;73.79
71621;BME280;59471;42.254;23.102;2023-12-14T12:31:48;94916.38;;;12.71;74.04
71621;BME280;59471;42.254;23.102;2023-12-14T12:34:14;94914.13;;;12.74;73.89
71621;BME280;59471;42.254;23.102;2023-12-14T12:36:40;94916.72;;;12.81;73.68
71621;BME280;59471;42.254;23.102;2023-12-14T12:39:07;94915.09;;;12.80;72.82
71621;BME280;59471;42.254;23.102;2023-12-14T12:41:34;94922.34;;;12.85;73.04
71621;BME280;59471;42.254;23.102;2023-12-14T12:44:00;94919.94;;;12.76;73.08
71621;BME280;59471;42.254;23.102;2023-12-14T12:46:34;94922.38;;;12.78;73.11
71621;BME280;59471;42.254;23.102;2023-12-14T12:49:01;94932.91;;;12.78;72.76
71621;BME280;59471;42.254;23.102;2023-12-14T12:51:28;94936.59;;;12.70;73.25
71621;BME280;59471;42.254;23.102;2023-12-14T12:53:55;94939.88;;;12.59;73.62
71621;BME280;59471;42.254;23.102;2023-12-14T12:56:24;94950.72;;;12.69;72.14
71621;BME280;59471;42.254;23.102;2023-12-14T12:58:51;94955.06;;;12.12;72.47